Arvilla, North Dakota
Current Conditions -  °F | °C
As of 12:58 PM on Thursday 18 Dec 2014 (Local Time) from KRDR Reporting Station
Overcast Overcast  
Wind Chill:   Ceiling: 6000
Heat Index: 17°   Visibility: 10mi
Dew Point: 16°   Wind: 8mph
Humidity: 98%   Direction: 170°S
Pressure: 30.19"   Gusts: NA
Location:  47.92°N, 97.49°W
Report Text: KRDR 181858Z AUTO 17007KT 10SM OVC060 M08/M09 A3019 RMK AO2 SLP250 T10841087
Loading
Personal Weather Stations






























Interactive Weather Map New forecast layout! Learn more

10-Day Weather Forecast

Advertisements
Track Severe Weather on mobile